Lodgepole, Nebraska
Current Conditions -  °F | °C
As of 1:53 PM on Friday 24 Oct 2014 (Local Time) from KSNY Reporting Station
Clear Clear  
Wind Chill: 28°   Ceiling: Unl
Heat Index: 28°   Visibility: 10mi
Dew Point: -1°   Wind: 22mph
Humidity: 15%   Direction: 320°NW
Pressure: 30.07"   Gusts: 25mph
Location:  41.15°N, 102.64°W
Report Text: KSNY 241953Z AUTO 32019G22KT 10SM CLR 28/M01 A3007 RMK AO2 SLP144 T02781011
Loading
Personal Weather Stations






























Interactive Weather Map
Tropical Storm Tracking
New forecast layout! Learn more

10-Day Weather Forecast

Advertisements
Track Severe Weather on mobile